Time;durP1;ratioP1;P1;durP2;ratioP2;P2;SDS_P1;SDS_P2;PMS_P1;PMS_P2;Temp;Humidity;BMP_temperature;BMP_pressure;BME280_temperature;BME280_humidity;BME280_pressure;Samples;Min_cycle;Max_cycle;Signal;HPM_P1;HPM_P2
2022/08/10 00:00:35;;;;;;;14.50;11.00;;;;;;;13.89;100.00;99848.88;104929;1271;61392;-70
2022/08/10 00:03:06;;;;;;;11.40;9.70;;;;;;;13.90;100.00;99843.47;104943;1271;61577;-69
2022/08/10 00:05:33;;;;;;;12.20;9.30;;;;;;;13.91;100.00;99839.09;105046;1271;61392;-70
2022/08/10 00:08:00;;;;;;;11.10;8.40;;;;;;;13.91;100.00;99840.70;104927;1271;75355;-70
2022/08/10 00:10:27;;;;;;;14.20;8.70;;;;;;;13.89;100.00;99840.65;105004;1271;69387;-71
2022/08/10 00:12:53;;;;;;;9.80;8.30;;;;;;;13.85;100.00;99837.58;105210;1271;73265;-69
2022/08/10 00:15:22;;;;;;;9.30;8.40;;;;;;;13.76;100.00;99834.38;104892;1270;61458;-70
2022/08/10 00:17:49;;;;;;;10.20;7.80;;;;;;;13.72;100.00;99835.75;105214;1271;61314;-70
2022/08/10 00:20:16;;;;;;;9.30;8.00;;;;;;;13.68;100.00;99830.33;105247;1271;74214;-71
2022/08/10 00:22:42;;;;;;;9.70;8.40;;;;;;;13.64;100.00;99831.30;104946;1272;69240;-70
2022/08/10 00:25:09;;;;;;;11.10;7.70;;;;;;;13.59;100.00;99828.53;105218;1268;61348;-71
2022/08/10 00:27:36;;;;;;;10.70;8.20;;;;;;;13.57;100.00;99829.96;104947;1272;61378;-70
2022/08/10 00:30:05;;;;;;;9.00;8.10;;;;;;;13.52;100.00;99832.59;104952;1270;61763;-70
2022/08/10 00:32:31;;;;;;;9.10;7.40;;;;;;;13.47;100.00;99833.13;104934;1271;75634;-71
2022/08/10 00:34:58;;;;;;;11.30;7.50;;;;;;;13.44;100.00;99831.17;105202;1271;68663;-72
2022/08/10 00:37:25;;;;;;;10.40;9.00;;;;;;;13.41;100.00;99830.64;105213;1271;72292;-71
2022/08/10 00:39:51;;;;;;;10.00;7.80;;;;;;;13.37;100.00;99832.29;105222;1268;61254;-70
2022/08/10 00:42:18;;;;;;;9.80;8.30;;;;;;;13.33;100.00;99832.59;105220;1271;61758;-71
2022/08/10 00:44:48;;;;;;;11.00;9.10;;;;;;;13.28;100.00;99834.89;105233;1271;74995;-71
2022/08/10 00:47:16;;;;;;;9.10;8.10;;;;;;;13.23;100.00;99838.41;105418;1270;69419;-71
2022/08/10 00:49:43;;;;;;;9.50;8.60;;;;;;;13.19;100.00;99838.63;105176;1271;73424;-69
2022/08/10 00:52:12;;;;;;;9.70;8.70;;;;;;;13.18;100.00;99839.18;105154;1271;61343;-72
2022/08/10 00:54:41;;;;;;;12.20;10.30;;;;;;;13.16;100.00;99839.14;105237;1271;61436;-71
2022/08/10 00:57:09;;;;;;;12.00;9.60;;;;;;;13.14;100.00;99840.34;105317;1271;75101;-70
2022/08/10 00:59:36;;;;;;;11.70;9.40;;;;;;;13.12;100.00;99840.16;105252;1268;69848;-70
2022/08/10 01:02:02;;;;;;;12.40;9.20;;;;;;;13.10;100.00;99842.80;104941;1268;73441;-71
2022/08/10 01:04:29;;;;;;;10.90;9.20;;;;;;;13.09;100.00;99839.83;104941;1271;61414;-70
2022/08/10 01:07:14;;;;;;;14.50;9.70;;;;;;;13.07;100.00;99832.42;104880;1269;61266;-70
2022/08/10 01:09:58;;;;;;;11.80;9.00;;;;;;;13.06;100.00;99835.36;105245;1271;75186;-70
2022/08/10 01:12:33;;;;;;;11.50;9.80;;;;;;;13.03;100.00;99829.10;104951;1271;69331;-70
2022/08/10 01:15:25;;;;;;;12.90;10.50;;;;;;;13.02;100.00;99828.15;105106;1271;73276;-70
2022/08/10 01:18:03;;;;;;;13.50;10.70;;;;;;;12.99;100.00;99830.12;105049;1271;61403;-71
2022/08/10 01:20:40;;;;;;;12.60;10.20;;;;;;;12.96;100.00;99830.62;105013;1271;61166;-71
2022/08/10 01:23:34;;;;;;;15.50;10.60;;;;;;;12.94;100.00;99832.86;105296;1271;76153;-71
2022/08/10 01:26:37;;;;;;;10.60;9.50;;;;;;;12.92;100.00;99834.13;105255;1271;68601;-70
2022/08/10 01:29:19;;;;;;;10.40;9.40;;;;;;;12.90;100.00;99832.62;104540;1278;73576;-70
2022/08/10 01:31:50;;;;;;;11.10;10.00;;;;;;;12.89;100.00;99832.17;104236;1279;61547;-70
2022/08/10 01:34:23;;;;;;;10.70;9.50;;;;;;;12.85;100.00;99833.63;104305;1279;61484;-71
2022/08/10 01:36:54;;;;;;;12.60;10.40;;;;;;;12.84;100.00;99832.63;104494;1279;75063;-70
2022/08/10 01:39:43;;;;;;;11.00;9.40;;;;;;;12.83;100.00;99832.17;104444;1279;69413;-70
2022/08/10 01:42:13;;;;;;;11.80;10.70;;;;;;;12.82;100.00;99836.70;104435;1279;74477;-71
2022/08/10 01:44:52;;;;;;;13.10;11.80;;;;;;;12.83;100.00;99833.61;104509;1279;61400;-70
2022/08/10 01:50:21;;;;;;;10.70;9.60;;;;;;;12.83;100.00;99831.30;104191;1279;76190;-71
2022/08/10 01:52:51;;;;;;;14.90;10.10;;;;;;;12.84;100.00;99834.27;104327;1280;69240;-70
2022/08/10 01:55:19;;;;;;;9.40;8.40;;;;;;;12.84;100.00;99832.98;104583;1279;73125;-70
2022/08/10 01:57:46;;;;;;;10.40;9.40;;;;;;;12.85;100.00;99834.73;104238;1279;61397;-70
2022/08/10 02:00:41;;;;;;;10.50;9.40;;;;;;;12.85;100.00;99834.03;104531;1279;61327;-70
2022/08/10 02:03:11;;;;;;;10.80;9.10;;;;;;;12.83;100.00;99831.45;104136;1279;74617;-70
2022/08/10 02:05:42;;;;;;;10.20;8.50;;;;;;;12.81;100.00;99834.27;104656;1271;69846;-71
2022/08/10 02:08:13;;;;;;;11.30;8.10;;;;;;;12.79;100.00;99833.69;105169;1271;74330;-70
2022/08/10 02:10:42;;;;;;;10.00;8.70;;;;;;;12.77;100.00;99831.70;104903;1271;61323;-71
2022/08/10 02:13:11;;;;;;;9.50;8.60;;;;;;;12.74;100.00;99833.29;105301;1270;61221;-70
2022/08/10 02:15:41;;;;;;;11.80;8.70;;;;;;;12.71;100.00;99835.57;105232;1271;76929;-70
2022/08/10 02:18:09;;;;;;;9.60;8.70;;;;;;;12.67;100.00;99831.36;104864;1271;69850;-70
2022/08/10 02:20:41;;;;;;;10.50;8.50;;;;;;;12.63;100.00;99830.20;105316;1271;72481;-71
2022/08/10 02:23:19;;;;;;;9.60;8.60;;;;;;;12.58;100.00;99829.09;105237;1271;61358;-72
2022/08/10 02:25:47;;;;;;;8.60;7.90;;;;;;;12.55;100.00;99826.96;105021;1271;61137;-70
2022/08/10 02:28:17;;;;;;;8.10;7.30;;;;;;;12.50;100.00;99828.16;105266;1272;76281;-70
2022/08/10 02:30:45;;;;;;;10.10;8.90;;;;;;;12.43;100.00;99836.58;105031;1271;70058;-71
2022/08/10 02:33:16;;;;;;;9.40;8.50;;;;;;;12.41;100.00;99833.37;105231;1270;73241;-73
2022/08/10 02:35:44;;;;;;;10.40;8.10;;;;;;;12.40;100.00;99834.33;105270;1271;61327;-72
2022/08/10 02:38:12;;;;;;;8.60;7.80;;;;;;;12.37;100.00;99832.69;105291;1270;61335;-70
2022/08/10 02:40:42;;;;;;;8.90;8.00;;;;;;;12.36;100.00;99836.35;105254;1269;75882;-71
2022/08/10 02:43:24;;;;;;;11.30;9.30;;;;;;;12.34;100.00;99838.98;105260;1269;68809;-71
2022/08/10 02:46:06;;;;;;;12.30;8.90;;;;;;;12.35;100.00;99842.30;105248;1271;73455;-70
2022/08/10 02:48:41;;;;;;;10.70;9.40;;;;;;;12.36;100.00;99846.84;105229;1269;61364;-72
2022/08/10 02:51:23;;;;;;;9.20;8.20;;;;;;;12.37;100.00;99848.74;105199;1271;61878;-71
2022/08/10 02:53:55;;;;;;;10.40;8.70;;;;;;;12.35;100.00;99850.63;105243;1269;75266;-72
2022/08/10 02:56:33;;;;;;;11.90;8.60;;;;;;;12.34;100.00;99849.66;105247;1270;69558;-71
2022/08/10 02:59:14;;;;;;;8.80;7.90;;;;;;;12.32;100.00;99851.71;104929;1269;73262;-71
2022/08/10 03:01:45;;;;;;;7.40;6.60;;;;;;;12.27;100.00;99853.95;105263;1269;61281;-71
2022/08/10 03:04:21;;;;;;;9.10;7.00;;;;;;;12.20;100.00;99856.52;105241;1270;61150;-71
2022/08/10 03:06:57;;;;;;;9.10;7.30;;;;;;;12.13;100.00;99860.66;105217;1269;76357;-70
2022/08/10 03:09:25;;;;;;;8.30;6.50;;;;;;;12.04;100.00;99856.92;105218;1271;69251;-70
2022/08/10 03:11:54;;;;;;;10.80;8.00;;;;;;;11.96;100.00;99861.15;105222;1269;72841;-71
2022/08/10 03:14:22;;;;;;;8.80;7.90;;;;;;;11.93;100.00;99860.43;105226;1268;61223;-71
2022/08/10 03:16:51;;;;;;;9.10;8.20;;;;;;;11.90;100.00;99864.17;105281;1269;61356;-70
2022/08/10 03:19:20;;;;;;;9.60;8.60;;;;;;;11.90;100.00;99861.18;105318;1269;75320;-70
2022/08/10 03:21:48;;;;;;;12.90;9.40;;;;;;;11.90;100.00;99865.97;105211;1268;70359;-71
2022/08/10 03:24:21;;;;;;;9.60;8.60;;;;;;;11.90;100.00;99870.59;104905;1271;73397;-70
2022/08/10 03:26:49;;;;;;;14.50;9.80;;;;;;;11.91;100.00;99873.91;105232;1268;61304;-70
2022/08/10 03:29:18;;;;;;;12.00;9.50;;;;;;;11.93;100.00;99871.50;105225;1271;61305;-71
2022/08/10 03:31:47;;;;;;;12.10;9.50;;;;;;;11.95;100.00;99872.61;104953;1271;73380;-69
2022/08/10 03:34:15;;;;;;;10.70;9.20;;;;;;;11.98;100.00;99872.11;104919;1271;69423;-70
2022/08/10 03:36:42;;;;;;;10.80;8.70;;;;;;;12.00;100.00;99873.40;105065;1268;72803;-70
2022/08/10 03:39:10;;;;;;;10.40;9.30;;;;;;;12.02;100.00;99875.73;104957;1272;61294;-70
2022/08/10 03:41:40;;;;;;;10.60;9.30;;;;;;;12.06;100.00;99875.73;104950;1268;61282;-71
2022/08/10 03:44:09;;;;;;;13.60;9.20;;;;;;;12.10;100.00;99872.23;105273;1269;75281;-71
2022/08/10 03:46:39;;;;;;;11.90;9.20;;;;;;;12.13;100.00;99872.80;105239;1270;69274;-70
2022/08/10 03:49:07;;;;;;;;;;;;;;;12.16;100.00;99875.47;105033;1268;74191;-71
2022/08/10 03:51:34;;;;;;;11.60;8.70;;;;;;;12.24;100.00;99880.90;105154;1271;61294;-70
2022/08/10 03:54:02;;;;;;;9.90;8.60;;;;;;;12.65;100.00;99878.41;105246;1268;62057;-71
2022/08/10 03:56:30;;;;;;;10.60;8.60;;;;;;;13.20;100.00;99876.27;105079;1268;75339;-71
2022/08/10 03:58:57;;;;;;;9.90;7.70;;;;;;;13.68;100.00;99878.14;105231;1268;70513;-71
2022/08/10 04:01:25;;;;;;;11.30;8.50;;;;;;;14.19;100.00;99880.27;105251;1268;73408;-71
2022/08/10 04:03:51;;;;;;;8.60;7.80;;;;;;;14.67;100.00;99876.27;105204;1268;61366;-70
2022/08/10 04:06:18;;;;;;;9.40;8.10;;;;;;;15.15;100.00;99877.23;105227;1268;61279;-78
2022/08/10 04:08:45;;;;;;;8.50;7.60;;;;;;;15.56;100.00;99879.09;105235;1268;76434;-73
2022/08/10 04:11:13;;;;;;;10.10;8.50;;;;;;;16.02;100.00;99878.71;105214;1268;68954;-72
2022/08/10 04:13:39;;;;;;;11.40;8.30;;;;;;;16.49;100.00;99877.80;105247;1268;71434;-73
2022/08/10 04:16:06;;;;;;;10.50;7.70;;;;;;;16.98;100.00;99878.52;105239;1268;61611;-73
2022/08/10 04:18:33;;;;;;;9.40;7.40;;;;;;;17.45;100.00;99884.83;105263;1268;61875;-73
2022/08/10 04:21:22;;;;;;;10.60;7.90;;;;;;;17.92;100.00;99888.67;105517;1268;75126;-74
2022/08/10 04:23:50;;;;;;;8.70;7.60;;;;;;;18.48;100.00;99885.57;105873;1268;69397;-72
2022/08/10 04:26:17;;;;;;;8.80;7.40;;;;;;;18.83;100.00;99885.52;105929;1268;73335;-72
2022/08/10 04:28:44;;;;;;;7.70;7.00;;;;;;;19.12;99.28;99885.61;104899;1271;61388;-73
2022/08/10 04:31:13;;;;;;;10.90;9.70;;;;;;;19.40;96.53;99888.92;105256;1268;61275;-73
2022/08/10 04:33:44;;;;;;;8.50;7.70;;;;;;;19.67;93.93;99885.58;105286;1269;76229;-72
2022/08/10 04:36:15;;;;;;;10.50;8.40;;;;;;;19.98;91.93;99886.02;105277;1268;69552;-74
2022/08/10 04:38:43;;;;;;;10.00;8.40;;;;;;;20.25;89.73;99887.00;105425;1269;73887;-72
2022/08/10 04:41:11;;;;;;;10.20;8.70;;;;;;;20.41;88.89;99886.86;104993;1271;61275;-72
2022/08/10 04:43:38;;;;;;;10.30;9.20;;;;;;;20.66;87.42;99883.89;105310;1268;61340;-73
2022/08/10 04:46:04;;;;;;;10.10;9.00;;;;;;;20.93;85.60;99886.13;105231;1269;76201;-71
2022/08/10 04:48:31;;;;;;;10.70;9.40;;;;;;;21.21;84.18;99882.45;105241;1271;61170;-71
2022/08/10 04:50:58;;;;;;;10.50;8.90;;;;;;;21.43;83.11;99882.06;105234;1268;73664;-72
2022/08/10 04:53:24;;;;;;;9.00;8.20;;;;;;;21.79;81.59;99886.84;105014;1271;61284;-72
2022/08/10 04:55:51;;;;;;;12.60;8.70;;;;;;;22.11;79.82;99888.35;105050;1273;61907;-72
2022/08/10 04:58:17;;;;;;;10.10;9.10;;;;;;;22.37;77.86;99886.98;105021;1272;61372;-73
2022/08/10 05:00:43;;;;;;;11.00;9.30;;;;;;;22.56;76.57;99885.56;104977;1271;61313;-74
2022/08/10 05:03:10;;;;;;;10.40;9.30;;;;;;;22.77;75.37;99885.41;105006;1272;61308;-73
2022/08/10 05:05:36;;;;;;;10.10;9.20;;;;;;;23.04;74.23;99884.13;104980;1272;61586;-75
2022/08/10 05:08:03;;;;;;;10.80;9.60;;;;;;;23.27;73.00;99887.66;105008;1274;61428;-73
2022/08/10 05:10:30;;;;;;;12.20;9.10;;;;;;;23.51;71.56;99888.49;105048;1274;76098;-73
2022/08/10 05:12:57;;;;;;;11.40;9.00;;;;;;;23.73;70.47;99885.84;104962;1274;69197;-73
2022/08/10 05:15:23;;;;;;;10.10;9.00;;;;;;;24.03;70.31;99888.00;105029;1274;61286;-73
2022/08/10 05:17:50;;;;;;;10.30;8.40;;;;;;;24.35;68.68;99890.31;104979;1274;61323;-73
2022/08/10 05:20:16;;;;;;;9.00;8.10;;;;;;;24.52;67.19;99893.00;105010;1273;61234;-73
2022/08/10 05:22:44;;;;;;;11.40;8.00;;;;;;;24.63;66.09;99890.14;104969;1274;61567;-73
2022/08/10 05:25:16;;;;;;;10.30;7.00;;;;;;;24.80;64.90;99886.98;105133;1268;69212;-73
2022/08/10 05:27:44;;;;;;;10.10;7.70;;;;;;;24.94;64.12;99892.61;105255;1268;73179;-73
2022/08/10 05:30:16;;;;;;;9.70;7.70;;;;;;;25.19;63.43;99887.59;105303;1268;61236;-73
2022/08/10 05:32:43;;;;;;;10.70;7.00;;;;;;;25.36;62.42;99882.09;105242;1268;61233;-72
2022/08/10 05:35:10;;;;;;;6.90;6.20;;;;;;;25.47;61.55;99883.72;105261;1268;74833;-73
2022/08/10 05:37:37;;;;;;;6.60;5.50;;;;;;;25.49;60.78;99887.70;104970;1270;68529;-73
2022/08/10 05:40:05;;;;;;;6.90;5.50;;;;;;;25.51;60.35;99885.39;105245;1268;73107;-73
2022/08/10 05:42:33;;;;;;;8.10;5.90;;;;;;;25.67;59.70;99888.25;105242;1268;61400;-73
2022/08/10 05:45:00;;;;;;;7.00;5.30;;;;;;;25.83;59.11;99891.34;105218;1268;61329;-74
2022/08/10 05:47:26;;;;;;;6.30;4.50;;;;;;;26.00;57.95;99890.36;105225;1268;76377;-72
2022/08/10 05:49:54;;;;;;;6.50;5.70;;;;;;;26.11;57.83;99891.75;105071;1271;70197;-73
2022/08/10 05:52:21;;;;;;;7.20;5.20;;;;;;;26.10;57.25;99894.97;105205;1268;73885;-75
2022/08/10 05:54:48;;;;;;;8.10;5.40;;;;;;;26.11;57.09;99894.48;105227;1268;61252;-73
2022/08/10 05:57:17;;;;;;;6.30;5.00;;;;;;;26.19;56.99;99894.84;105220;1268;61234;-73
2022/08/10 05:59:47;;;;;;;7.20;5.40;;;;;;;26.31;56.18;99896.53;105275;1268;75235;-73
2022/08/10 06:02:23;;;;;;;5.60;5.00;;;;;;;26.33;56.13;99894.59;105366;1268;69536;-73
2022/08/10 06:04:52;;;;;;;6.30;5.70;;;;;;;26.29;55.88;99898.35;105324;1268;73432;-74
2022/08/10 06:07:20;;;;;;;5.80;5.30;;;;;;;26.42;55.60;99896.13;105340;1268;61368;-71
2022/08/10 06:09:49;;;;;;;7.70;5.20;;;;;;;26.32;54.33;99897.78;105350;1268;61288;-74
2022/08/10 06:12:18;;;;;;;6.20;4.30;;;;;;;26.18;54.61;99901.67;105280;1268;75578;-73
2022/08/10 06:15:01;;;;;;;6.10;4.50;;;;;;;26.18;54.19;99905.55;105408;1268;69195;-73
2022/08/10 06:17:30;;;;;;;5.60;4.50;;;;;;;26.04;53.19;99903.48;105271;1268;72979;-73
2022/08/10 06:19:58;;;;;;;5.40;4.40;;;;;;;25.93;53.25;99913.01;105266;1268;61163;-74
2022/08/10 06:22:28;;;;;;;5.60;4.40;;;;;;;25.83;52.86;99912.90;105350;1268;61357;-74
2022/08/10 06:24:56;;;;;;;6.10;5.40;;;;;;;25.83;53.53;99914.64;105338;1268;75125;-74
2022/08/10 06:27:23;;;;;;;5.70;5.20;;;;;;;25.89;52.90;99916.00;105371;1268;70282;-74
2022/08/10 06:29:51;;;;;;;8.30;5.10;;;;;;;25.66;52.12;99910.12;105279;1269;73195;-73
2022/08/10 06:32:24;;;;;;;9.60;5.50;;;;;;;25.54;52.08;99908.52;105275;1271;61278;-74
2022/08/10 06:34:54;;;;;;;6.60;5.40;;;;;;;25.49;52.79;99907.39;105302;1269;61398;-73
2022/08/10 06:37:26;;;;;;;6.50;5.20;;;;;;;25.51;52.64;99908.91;105123;1268;73677;-75
2022/08/10 06:39:52;;;;;;;5.70;5.20;;;;;;;25.62;53.21;99908.19;105322;1271;69953;-73
2022/08/10 06:42:28;;;;;;;8.90;5.80;;;;;;;25.71;53.10;99908.27;105196;1271;74730;-74
2022/08/10 06:45:13;;;;;;;7.00;5.50;;;;;;;25.68;52.69;99909.73;105322;1271;61304;-73
2022/08/10 06:47:48;;;;;;;6.10;4.70;;;;;;;25.68;52.81;99906.38;105026;1271;61282;-76
2022/08/10 06:50:22;;;;;;;9.40;4.90;;;;;;;25.78;52.33;99908.68;105273;1271;76547;-74
2022/08/10 06:52:51;;;;;;;6.70;5.10;;;;;;;25.81;51.65;99908.09;105248;1268;69379;-74
2022/08/10 06:55:22;;;;;;;5.30;4.80;;;;;;;25.60;51.01;99903.72;105258;1269;73561;-74
2022/08/10 06:57:50;;;;;;;7.00;5.00;;;;;;;25.34;50.73;99906.52;105396;1271;61254;-74
2022/08/10 07:00:18;;;;;;;6.90;5.40;;;;;;;25.01;51.02;99908.22;105256;1270;61266;-73
2022/08/10 07:02:50;;;;;;;5.30;4.50;;;;;;;24.95;52.22;99904.88;105271;1271;75230;-75
2022/08/10 07:05:23;;;;;;;8.40;5.40;;;;;;;25.02;52.21;99904.29;105256;1271;69148;-74
2022/08/10 07:07:54;;;;;;;6.70;6.00;;;;;;;24.96;52.17;99909.27;105260;1271;73595;-74
2022/08/10 07:10:23;;;;;;;6.30;5.10;;;;;;;24.64;52.36;99910.03;105260;1270;61370;-73
2022/08/10 07:12:55;;;;;;;8.40;6.90;;;;;;;24.22;53.37;99908.62;105265;1271;62188;-73
2022/08/10 07:15:24;;;;;;;8.40;6.90;;;;;;;23.95;54.30;99911.27;105031;1271;75339;-73
2022/08/10 07:17:52;;;;;;;7.10;6.50;;;;;;;23.77;54.81;99914.58;105257;1268;69937;-73
2022/08/10 07:20:21;;;;;;;7.60;6.30;;;;;;;23.60;55.41;99912.08;105093;1271;75091;-73
2022/08/10 07:22:51;;;;;;;8.80;6.30;;;;;;;23.53;56.21;99910.75;105240;1268;61308;-73
2022/08/10 07:25:21;;;;;;;5.80;5.20;;;;;;;23.46;56.79;99909.61;105313;1267;61494;-73
2022/08/10 07:27:48;;;;;;;7.10;6.40;;;;;;;23.33;56.51;99910.56;105267;1269;75743;-74
2022/08/10 07:30:15;;;;;;;6.80;5.90;;;;;;;23.11;56.58;99913.23;105249;1268;70635;-73
2022/08/10 07:32:43;;;;;;;6.80;5.10;;;;;;;22.87;56.67;99910.97;105205;1268;71664;-73
2022/08/10 07:35:14;;;;;;;6.30;5.30;;;;;;;22.73;57.16;99910.98;105287;1268;61215;-74
2022/08/10 07:37:45;;;;;;;6.30;4.20;;;;;;;22.67;57.59;99908.38;105288;1268;61312;-73
2022/08/10 07:40:14;;;;;;;7.10;5.00;;;;;;;22.73;58.41;99909.14;105303;1268;75034;-74
2022/08/10 07:42:44;;;;;;;7.40;4.30;;;;;;;22.84;58.91;99904.60;105236;1268;69385;-72
2022/08/10 07:45:11;;;;;;;6.80;4.40;;;;;;;23.01;59.20;99904.88;105249;1268;72934;-72
2022/08/10 07:48:00;;;;;;;7.70;5.40;;;;;;;23.18;59.19;99903.75;105219;1270;61329;-73
2022/08/10 07:50:28;;;;;;;7.90;5.90;;;;;;;23.28;58.91;99903.26;105275;1268;61230;-73
2022/08/10 07:52:59;;;;;;;8.30;6.20;;;;;;;23.24;58.24;99907.36;105003;1268;76389;-74
2022/08/10 07:55:26;;;;;;;15.90;5.30;;;;;;;23.25;58.73;99904.67;105255;1268;69002;-73
2022/08/10 07:57:56;;;;;;;6.90;4.70;;;;;;;23.35;58.23;99906.88;105273;1268;73354;-73
2022/08/10 08:00:26;;;;;;;5.80;4.80;;;;;;;23.39;57.93;99903.25;105372;1268;61272;-73
2022/08/10 08:02:58;;;;;;;4.80;4.30;;;;;;;23.25;56.55;99897.80;105294;1268;61300;-72
2022/08/10 08:05:27;;;;;;;7.30;4.50;;;;;;;23.18;57.28;99894.30;105272;1268;75141;-70
2022/08/10 08:07:56;;;;;;;4.50;4.10;;;;;;;23.27;57.57;99894.34;105246;1268;68983;-70
2022/08/10 08:10:28;;;;;;;5.00;3.90;;;;;;;23.33;56.84;99896.07;105280;1268;74481;-72
2022/08/10 08:12:57;;;;;;;8.50;3.90;;;;;;;23.38;56.95;99894.37;105224;1268;61271;-71
2022/08/10 08:15:25;;;;;;;4.00;3.70;;;;;;;23.57;57.27;99890.63;105269;1268;61163;-71
2022/08/10 08:17:54;;;;;;;5.80;4.40;;;;;;;23.83;57.17;99889.76;105275;1268;75804;-71
2022/08/10 08:20:23;;;;;;;5.00;3.40;;;;;;;23.98;56.20;99885.30;105254;1268;69139;-70
2022/08/10 08:22:50;;;;;;;6.00;4.10;;;;;;;24.01;55.32;99886.75;105219;1268;73221;-70
2022/08/10 08:25:19;;;;;;;7.90;4.20;;;;;;;24.08;55.26;99887.43;104950;1268;61431;-71
2022/08/10 08:27:51;;;;;;;5.10;3.90;;;;;;;24.16;54.82;99884.63;105002;1271;61238;-71
2022/08/10 08:30:20;;;;;;;5.70;3.70;;;;;;;24.28;54.78;99881.05;104992;1271;75382;-70
2022/08/10 08:32:47;;;;;;;7.00;4.10;;;;;;;24.26;54.25;99876.34;105271;1268;68530;-72
2022/08/10 08:35:17;;;;;;;4.70;3.50;;;;;;;24.33;54.83;99874.17;105257;1268;72458;-71
2022/08/10 08:37:51;;;;;;;4.90;3.50;;;;;;;24.44;54.81;99871.91;104953;1269;61326;-71
2022/08/10 08:40:32;;;;;;;4.40;4.00;;;;;;;24.46;54.19;99869.52;105210;1268;61150;-72
2022/08/10 08:43:22;;;;;;;4.60;3.00;;;;;;;24.24;54.44;99868.61;105271;1268;74422;-71
2022/08/10 08:46:08;;;;;;;4.40;4.00;;;;;;;23.96;54.11;99872.81;105238;1271;69219;-72
2022/08/10 08:48:54;;;;;;;4.50;3.20;;;;;;;24.13;54.80;99872.17;105294;1268;73786;-72
2022/08/10 08:51:24;;;;;;;6.20;3.30;;;;;;;24.33;54.17;99867.84;105319;1268;61292;-71
2022/08/10 08:54:15;;;;;;;7.90;5.80;;;;;;;24.67;54.86;99869.27;105358;1267;61367;-72
2022/08/10 08:57:06;;;;;;;3.90;3.60;;;;;;;25.07;54.29;99867.35;105028;1272;74661;-71
2022/08/10 09:00:04;;;;;;;4.90;3.00;;;;;;;25.47;54.37;99857.48;104970;1271;70838;-73
2022/08/10 09:02:46;;;;;;;6.50;4.40;;;;;;;25.61;51.93;99860.08;105240;1268;73427;-71
2022/08/10 09:05:15;;;;;;;3.90;2.60;;;;;;;25.73;51.24;99859.42;105267;1268;61242;-71
2022/08/10 09:08:07;;;;;;;2.60;1.80;;;;;;;25.73;50.49;99865.02;105197;1268;62097;-72
2022/08/10 09:10:58;;;;;;;2.40;1.90;;;;;;;25.76;47.44;99856.67;105259;1269;75283;-71
2022/08/10 09:13:40;;;;;;;3.90;2.70;;;;;;;25.73;47.08;99856.45;105273;1268;68931;-72
2022/08/10 09:16:25;;;;;;;4.60;2.20;;;;;;;25.43;45.50;99857.45;105226;1269;73354;-71
2022/08/10 09:19:24;;;;;;;2.40;2.10;;;;;;;25.17;45.64;99857.33;105003;1268;61472;-72
2022/08/10 09:22:00;;;;;;;2.10;1.90;;;;;;;25.16;44.88;99860.66;104647;1277;61396;-71
2022/08/10 09:24:32;;;;;;;3.10;1.90;;;;;;;24.88;44.72;99861.30;104549;1278;75213;-73
2022/08/10 09:27:06;;;;;;;7.50;2.80;;;;;;;24.78;45.04;99858.45;104512;1278;69424;-70
2022/08/10 09:29:43;;;;;;;3.30;1.70;;;;;;;24.82;44.66;99858.59;104645;1280;73522;-71
2022/08/10 09:32:30;;;;;;;2.70;2.20;;;;;;;24.56;44.97;99857.73;104533;1280;61343;-72
2022/08/10 09:35:15;;;;;;;2.00;1.80;;;;;;;24.66;45.03;99851.09;104562;1278;61248;-71
2022/08/10 09:37:50;;;;;;;2.20;1.70;;;;;;;24.79;44.48;99855.64;104523;1278;75798;-71
2022/08/10 09:40:37;;;;;;;3.10;2.20;;;;;;;24.62;43.64;99856.03;104555;1277;69157;-72
2022/08/10 09:43:17;;;;;;;3.00;1.80;;;;;;;24.67;43.73;99848.97;104537;1278;74214;-72
2022/08/10 09:45:59;;;;;;;1.80;1.60;;;;;;;24.84;43.70;99853.27;104519;1277;61617;-70
2022/08/10 09:49:00;;;;;;;2.40;1.70;;;;;;;24.86;43.97;99853.98;103677;1278;1199801;-71
2022/08/10 09:51:35;;;;;;;2.20;1.70;;;;;;;24.77;43.16;99846.80;104567;1279;74318;-72
2022/08/10 09:54:36;;;;;;;2.10;1.60;;;;;;;24.81;43.44;99846.35;104584;1278;69517;-71
2022/08/10 09:57:20;;;;;;;3.60;1.70;;;;;;;24.97;43.21;99837.98;104516;1280;73706;-71
2022/08/10 10:00:10;;;;;;;2.30;1.80;;;;;;;25.31;42.59;99833.30;104842;1271;61387;-72
2022/08/10 10:02:41;;;;;;;2.40;1.60;;;;;;;25.56;42.04;99828.94;105214;1271;61216;-72
2022/08/10 10:05:40;;;;;;;3.60;2.10;;;;;;;25.87;42.60;99830.11;105190;1271;75233;-72
2022/08/10 10:08:16;;;;;;;3.20;1.90;;;;;;;26.23;42.18;99824.17;105197;1271;68275;-71
2022/08/10 10:11:02;;;;;;;4.50;1.90;;;;;;;26.51;41.49;99825.41;105203;1271;73316;-71
2022/08/10 10:13:37;;;;;;;4.30;2.80;;;;;;;26.40;39.96;99823.31;105204;1271;61210;-71
2022/08/10 10:16:40;;;;;;;3.40;1.70;;;;;;;26.00;40.16;99822.37;105048;1271;61289;-72
2022/08/10 10:19:23;;;;;;;2.90;2.20;;;;;;;25.58;40.73;99820.06;104954;1272;75070;-71
2022/08/10 10:22:25;;;;;;;5.80;2.70;;;;;;;25.37;40.91;99816.11;105208;1271;69159;-71
2022/08/10 10:24:57;;;;;;;3.10;2.00;;;;;;;25.42;41.25;99808.95;105069;1271;73299;-71
2022/08/10 10:27:38;;;;;;;3.30;2.00;;;;;;;25.57;40.92;99809.94;105064;1272;61245;-71
2022/08/10 10:30:09;;;;;;;2.90;1.70;;;;;;;25.84;41.17;99806.30;104747;1272;61162;-71
2022/08/10 10:32:54;;;;;;;1.80;1.70;;;;;;;26.15;41.18;99809.73;105142;1271;75255;-70
2022/08/10 10:36:03;;;;;;;2.90;2.00;;;;;;;26.37;40.66;99803.96;105266;1271;70242;-72
2022/08/10 10:38:38;;;;;;;2.30;2.10;;;;;;;26.48;39.86;99805.02;104707;1277;73195;-71
2022/08/10 10:41:20;;;;;;;2.20;2.00;;;;;;;26.56;40.32;99806.94;104732;1277;61410;-71
2022/08/10 10:44:04;;;;;;;2.40;2.20;;;;;;;26.87;40.24;99793.52;104700;1277;61357;-71
2022/08/10 10:47:01;;;;;;;4.10;1.70;;;;;;;27.08;40.02;99795.86;104727;1277;76411;-72
2022/08/10 10:49:57;;;;;;;3.30;2.10;;;;;;;26.98;38.20;99789.27;104472;1277;70549;-71
2022/08/10 10:52:57;;;;;;;4.40;2.20;;;;;;;26.50;38.86;99795.04;104704;1277;73245;-71
2022/08/10 10:55:35;;;;;;;2.00;1.70;;;;;;;26.12;39.56;99804.90;104687;1277;61369;-73
2022/08/10 10:58:21;;;;;;;3.50;2.10;;;;;;;25.84;40.16;99799.91;104762;1277;61317;-72
2022/08/10 11:00:52;;;;;;;2.60;1.80;;;;;;;25.57;40.58;99798.85;104791;1277;75174;-71
2022/08/10 11:03:47;;;;;;;2.20;1.90;;;;;;;25.43;40.71;99797.69;104781;1277;70324;-72
2022/08/10 11:06:22;;;;;;;3.40;2.00;;;;;;;25.31;41.17;99798.27;104773;1277;73260;-72
2022/08/10 11:09:01;;;;;;;2.20;2.00;;;;;;;25.57;40.94;99792.71;104777;1277;61398;-72
2022/08/10 11:11:32;;;;;;;3.70;1.90;;;;;;;25.92;39.89;99788.90;104744;1277;61432;-70
2022/08/10 11:14:12;;;;;;;1.80;1.70;;;;;;;26.13;39.98;99785.91;105170;1271;74804;-71
2022/08/10 11:16:50;;;;;;;3.20;2.10;;;;;;;26.23;39.78;99787.59;105238;1268;70329;-71
2022/08/10 11:19:27;;;;;;;3.80;1.90;;;;;;;26.27;39.22;99788.92;105245;1268;74990;-72
2022/08/10 11:22:11;;;;;;;1.70;1.50;;;;;;;26.30;39.14;99789.44;105212;1268;61336;-71
2022/08/10 11:24:59;;;;;;;2.30;1.90;;;;;;;26.55;38.74;99781.66;105298;1268;61256;-71
2022/08/10 11:27:42;;;;;;;1.40;1.30;;;;;;;26.80;38.74;99782.23;105254;1268;75266;-71
2022/08/10 11:30:18;;;;;;;1.90;1.80;;;;;;;27.01;38.26;99781.36;105226;1268;69668;-70
2022/08/10 11:33:02;;;;;;;1.90;1.80;;;;;;;27.06;37.47;99779.90;105240;1268;73189;-71
2022/08/10 11:35:47;;;;;;;2.90;2.00;;;;;;;27.01;37.20;99778.08;105209;1268;61294;-72
2022/08/10 11:38:29;;;;;;;3.20;1.50;;;;;;;26.81;36.78;99782.04;105268;1268;61306;-72
2022/08/10 11:41:24;;;;;;;2.10;1.90;;;;;;;26.49;37.24;99784.70;105237;1269;75173;-71
2022/08/10 11:44:08;;;;;;;2.50;1.90;;;;;;;26.26;37.51;99783.95;105228;1268;69640;-70
2022/08/10 11:46:40;;;;;;;2.50;1.90;;;;;;;26.07;37.67;99783.35;105258;1268;74515;-72
2022/08/10 11:49:29;;;;;;;5.90;1.90;;;;;;;26.09;38.04;99783.63;105253;1268;61266;-72
2022/08/10 11:52:14;;;;;;;3.90;2.00;;;;;;;26.24;38.75;99779.83;105234;1268;61337;-72